createdAt,value
2018-12-18T00:00:22.963Z,0
2018-12-18T00:01:22.704Z,0
2018-12-18T00:02:23.177Z,0
2018-12-18T00:03:22.687Z,0
2018-12-18T00:04:23.176Z,0
2018-12-18T00:05:22.904Z,0
2018-12-18T00:06:23.181Z,0
2018-12-18T00:07:23.150Z,0
2018-12-18T00:08:22.881Z,0
2018-12-18T00:09:22.877Z,0
2018-12-18T00:10:23.121Z,0
2018-12-18T00:11:22.637Z,0
2018-12-18T00:12:23.097Z,0
2018-12-18T00:13:22.596Z,0
2018-12-18T00:14:22.837Z,0
2018-12-18T00:15:23.092Z,0
2018-12-18T00:16:23.070Z,0
2018-12-18T00:17:22.843Z,0
2018-12-18T00:18:25.258Z,0
2018-12-18T00:19:22.796Z,0
2018-12-18T00:20:23.038Z,0
2018-12-18T00:21:22.378Z,0
2018-12-18T00:22:22.786Z,0
2018-12-18T00:23:22.758Z,0
2018-12-18T00:24:23.804Z,0
2018-12-18T00:25:22.264Z,0
2018-12-18T00:26:22.760Z,0
2018-12-18T00:27:22.757Z,0
2018-12-18T00:28:23.019Z,0
2018-12-18T00:29:22.704Z,0
2018-12-18T00:30:22.723Z,0
2018-12-18T00:31:22.457Z,0
2018-12-18T00:32:22.692Z,0
2018-12-18T00:33:22.688Z,0
2018-12-18T00:34:22.672Z,0
2018-12-18T00:35:22.681Z,0
2018-12-18T00:36:22.654Z,0
2018-12-18T00:37:22.159Z,0
2018-12-18T00:38:22.660Z,0
2018-12-18T00:39:22.884Z,0
2018-12-18T00:40:22.642Z,0
2018-12-18T00:41:22.407Z,0
2018-12-18T00:42:22.382Z,0
2018-12-18T00:43:22.602Z,0
2018-12-18T00:44:22.607Z,0
2018-12-18T00:45:22.598Z,0
2018-12-18T00:46:22.637Z,0
2018-12-18T00:47:22.074Z,0
2018-12-18T00:48:22.812Z,0
2018-12-18T00:49:23.528Z,0
2018-12-18T00:50:22.566Z,0
2018-12-18T00:51:22.545Z,0
2018-12-18T00:52:22.795Z,0
2018-12-18T00:53:22.049Z,0
2018-12-18T00:54:22.534Z,0
2018-12-18T00:55:22.750Z,0
2018-12-18T00:56:22.018Z,0
2018-12-18T00:57:22.275Z,0
2018-12-18T00:58:22.502Z,0
2018-12-18T00:59:22.223Z,0
2018-12-18T01:00:22.791Z,0
2018-12-18T01:01:22.733Z,0
2018-12-18T01:02:22.694Z,0
2018-12-18T01:03:22.451Z,0
2018-12-18T01:04:22.697Z,0
2018-12-18T01:05:22.433Z,0
2018-12-18T01:06:22.460Z,0
2018-12-18T01:07:22.651Z,0
2018-12-18T01:08:22.308Z,0
2018-12-18T01:09:22.421Z,0
2018-12-18T01:10:22.158Z,0
2018-12-18T01:11:22.124Z,0
2018-12-18T01:12:22.114Z,0
2018-12-18T01:13:22.369Z,0
2018-12-18T01:14:22.084Z,0
2018-12-18T01:15:22.089Z,0
2018-12-18T01:16:22.401Z,0
2018-12-18T01:17:22.113Z,0
2018-12-18T01:18:22.557Z,0
2018-12-18T01:19:23.043Z,0
2018-12-18T01:20:22.531Z,0
2018-12-18T01:21:21.811Z,0
2018-12-18T01:22:22.031Z,0
2018-12-18T01:23:22.493Z,0
2018-12-18T01:24:22.007Z,0
2018-12-18T01:25:22.242Z,0
2018-12-18T01:26:22.061Z,0
2018-12-18T01:27:21.724Z,0
2018-12-18T01:28:21.975Z,0
2018-12-18T01:29:22.191Z,0
2018-12-18T01:30:21.702Z,0
2018-12-18T01:31:21.952Z,0
2018-12-18T01:32:21.937Z,0
2018-12-18T01:33:22.200Z,0
2018-12-18T01:34:22.465Z,0
2018-12-18T01:35:22.154Z,0
2018-12-18T01:36:22.180Z,0
2018-12-18T01:37:21.872Z,0
2018-12-18T01:38:21.634Z,0
2018-12-18T01:39:22.125Z,0
2018-12-18T01:40:22.102Z,0
2018-12-18T01:41:21.898Z,0
2018-12-18T01:42:21.837Z,0
2018-12-18T01:43:22.323Z,0
2018-12-18T01:44:22.051Z,0
2018-12-18T01:45:22.070Z,0
2018-12-18T01:46:21.929Z,0
2018-12-18T01:47:22.299Z,0
2018-12-18T01:48:21.804Z,0
2018-12-18T01:49:24.151Z,0
2018-12-18T01:50:21.987Z,0
2018-12-18T01:51:21.826Z,0
2018-12-18T01:52:22.211Z,0
2018-12-18T01:53:21.982Z,0
2018-12-18T01:54:21.949Z,0
2018-12-18T01:55:21.965Z,0
2018-12-18T01:56:21.948Z,0
2018-12-18T01:57:21.701Z,0
2018-12-18T01:58:21.698Z,0
2018-12-18T01:59:21.684Z,0
2018-12-18T02:00:21.895Z,0
2018-12-18T02:01:21.907Z,0
2018-12-18T02:02:21.890Z,0
2018-12-18T02:03:21.645Z,0
2018-12-18T02:04:22.120Z,0
2018-12-18T02:05:21.895Z,0
2018-12-18T02:06:22.114Z,0
2018-12-18T02:07:21.589Z,0
2018-12-18T02:08:21.958Z,0
2018-12-18T02:09:21.549Z,0
2018-12-18T02:10:22.050Z,0
2018-12-18T02:11:21.815Z,0
2018-12-18T02:12:21.846Z,0
2018-12-18T02:13:21.764Z,0
2018-12-18T02:14:21.766Z,0
2018-12-18T02:15:22.007Z,0
2018-12-18T02:16:21.999Z,0
2018-12-18T02:17:21.755Z,0
2018-12-18T02:18:21.483Z,0
2018-12-18T02:19:21.959Z,0
2018-12-18T02:20:21.523Z,0
2018-12-18T02:21:21.743Z,0
2018-12-18T02:22:21.696Z,0
2018-12-18T02:23:21.943Z,0
2018-12-18T02:24:21.919Z,0
2018-12-18T02:25:21.691Z,0
2018-12-18T02:26:21.948Z,0
2018-12-18T02:27:21.388Z,0
2018-12-18T02:28:21.400Z,0
2018-12-18T02:29:21.899Z,0
2018-12-18T02:30:21.378Z,0
2018-12-18T02:31:21.906Z,0
2018-12-18T02:32:21.594Z,0
2018-12-18T02:33:21.417Z,0
2018-12-18T02:34:23.233Z,0
2018-12-18T02:35:24.551Z,0
2018-12-18T02:36:21.570Z,0
2018-12-18T02:37:21.565Z,0
2018-12-18T02:38:21.567Z,0
2018-12-18T02:39:21.806Z,0
2018-12-18T02:40:21.766Z,0
2018-12-18T02:41:21.568Z,0
2018-12-18T02:42:21.753Z,0
2018-12-18T02:43:21.068Z,0
2018-12-18T02:44:21.241Z,0
2018-12-18T02:45:21.249Z,0
2018-12-18T02:46:21.823Z,0
2018-12-18T02:47:21.698Z,0
2018-12-18T02:48:20.971Z,0
2018-12-18T02:49:21.705Z,0
2018-12-18T02:50:21.515Z,0
2018-12-18T02:51:21.782Z,0
2018-12-18T02:52:21.719Z,0
2018-12-18T02:53:21.391Z,0
2018-12-18T02:54:21.409Z,0
2018-12-18T02:55:21.659Z,0
2018-12-18T02:56:21.127Z,0
2018-12-18T02:57:21.388Z,0
2018-12-18T02:58:21.099Z,0
2018-12-18T02:59:21.574Z,0
2018-12-18T03:00:21.371Z,0
2018-12-18T03:01:21.389Z,0
2018-12-18T03:02:21.342Z,0
2018-12-18T03:03:21.550Z,0
2018-12-18T03:04:28.218Z,0
2018-12-18T03:05:21.031Z,0
2018-12-18T03:06:21.367Z,0
2018-12-18T03:07:21.522Z,0
2018-12-18T03:08:21.535Z,0
2018-12-18T03:09:21.244Z,0
2018-12-18T03:10:21.493Z,0
2018-12-18T03:11:21.303Z,0
2018-12-18T03:12:21.210Z,0
2018-12-18T03:13:21.502Z,0
2018-12-18T03:14:21.447Z,0
2018-12-18T03:15:20.699Z,0
2018-12-18T03:16:21.215Z,0
2018-12-18T03:17:21.415Z,0
2018-12-18T03:18:20.916Z,0
2018-12-18T03:19:21.171Z,0
2018-12-18T03:20:22.748Z,0
2018-12-18T03:21:20.949Z,0
2018-12-18T03:22:21.131Z,0
2018-12-18T03:23:20.675Z,0
2018-12-18T03:24:20.864Z,0
2018-12-18T03:25:21.179Z,0
2018-12-18T03:26:21.155Z,0
2018-12-18T03:27:21.310Z,0
2018-12-18T03:28:21.060Z,0
2018-12-18T03:29:20.838Z,0
2018-12-18T03:30:21.088Z,0
2018-12-18T03:31:21.153Z,0
2018-12-18T03:32:21.058Z,0
2018-12-18T03:33:20.755Z,0
2018-12-18T03:34:28.113Z,0
2018-12-18T03:35:20.990Z,0
2018-12-18T03:36:21.536Z,0
2018-12-18T03:37:20.720Z,0
2018-12-18T03:38:20.955Z,0
2018-12-18T03:39:20.952Z,0
2018-12-18T03:40:20.961Z,0
2018-12-18T03:41:20.960Z,0
2018-12-18T03:42:21.183Z,0
2018-12-18T03:43:20.419Z,0
2018-12-18T03:44:21.217Z,0
2018-12-18T03:45:21.130Z,0
2018-12-18T03:46:20.526Z,0
2018-12-18T03:47:20.625Z,0
2018-12-18T03:48:20.625Z,0
2018-12-18T03:49:20.899Z,0
2018-12-18T03:50:20.929Z,0
2018-12-18T03:51:21.111Z,0
2018-12-18T03:52:20.816Z,0
2018-12-18T03:53:21.075Z,0
2018-12-18T03:54:21.070Z,0
2018-12-18T03:55:21.069Z,0
2018-12-18T03:56:20.332Z,0
2018-12-18T03:57:21.011Z,0
2018-12-18T03:58:21.008Z,0
2018-12-18T03:59:20.995Z,0
2018-12-18T04:00:20.840Z,0
2018-12-18T04:01:21.023Z,0
2018-12-18T04:02:21.019Z,0
2018-12-18T04:03:20.978Z,0
2018-12-18T04:04:20.450Z,0
2018-12-18T04:05:20.471Z,0
2018-12-18T04:06:21.151Z,0
2018-12-18T04:07:20.678Z,0
2018-12-18T04:08:20.924Z,0
2018-12-18T04:09:20.420Z,0
2018-12-18T04:10:20.646Z,0
2018-12-18T04:11:20.436Z,0
2018-12-18T04:12:20.883Z,0
2018-12-18T04:13:20.865Z,0
2018-12-18T04:14:20.853Z,0
2018-12-18T04:15:20.897Z,0
2018-12-18T04:16:20.622Z,0
2018-12-18T04:17:20.834Z,0
2018-12-18T04:18:20.822Z,0
2018-12-18T04:19:20.584Z,0
2018-12-18T04:20:20.551Z,0
2018-12-18T04:21:21.870Z,0
2018-12-18T04:22:20.534Z,0
2018-12-18T04:23:20.029Z,0
2018-12-18T04:24:20.518Z,0
2018-12-18T04:25:20.735Z,0
2018-12-18T04:26:20.762Z,0
2018-12-18T04:27:20.749Z,0
2018-12-18T04:28:20.212Z,0
2018-12-18T04:29:20.726Z,0
2018-12-18T04:30:20.456Z,0
2018-12-18T04:31:20.200Z,0
2018-12-18T04:32:20.435Z,0
2018-12-18T04:33:20.683Z,0
2018-12-18T04:34:20.661Z,0
2018-12-18T04:35:19.981Z,0
2018-12-18T04:36:22.594Z,0
2018-12-18T04:37:20.138Z,0
2018-12-18T04:38:20.362Z,0
2018-12-18T04:39:20.595Z,0
2018-12-18T04:40:20.359Z,0
2018-12-18T04:41:20.139Z,0
2018-12-18T04:42:20.607Z,0
2018-12-18T04:43:20.327Z,0
2018-12-18T04:44:20.552Z,0
2018-12-18T04:45:20.653Z,0
2018-12-18T04:46:20.582Z,0
2018-12-18T04:47:20.048Z,0
2018-12-18T04:48:20.025Z,0
2018-12-18T04:49:20.502Z,0
2018-12-18T04:50:20.866Z,0
2018-12-18T04:51:21.792Z,0
2018-12-18T04:52:20.206Z,0
2018-12-18T04:53:19.721Z,0
2018-12-18T04:54:20.448Z,0
2018-12-18T04:55:20.025Z,0
2018-12-18T04:56:20.427Z,0
2018-12-18T04:57:19.922Z,0
2018-12-18T04:58:20.427Z,0
2018-12-18T04:59:19.963Z,0
2018-12-18T05:00:19.880Z,0
2018-12-18T05:01:20.397Z,0
2018-12-18T05:02:20.124Z,0
2018-12-18T05:03:20.344Z,0
2018-12-18T05:04:20.312Z,0
2018-12-18T05:05:20.350Z,0
2018-12-18T05:06:21.168Z,0
2018-12-18T05:07:20.313Z,0
2018-12-18T05:08:20.021Z,0
2018-12-18T05:09:21.555Z,0
2018-12-18T05:10:20.013Z,0
2018-12-18T05:11:20.086Z,0
2018-12-18T05:12:19.755Z,0
2018-12-18T05:13:19.989Z,0
2018-12-18T05:14:19.968Z,0
2018-12-18T05:15:19.706Z,0
2018-12-18T05:16:19.980Z,0
2018-12-18T05:17:19.690Z,0
2018-12-18T05:18:19.690Z,0
2018-12-18T05:19:19.907Z,0
2018-12-18T05:20:19.919Z,0
2018-12-18T05:21:19.920Z,0
2018-12-18T05:22:23.139Z,0
2018-12-18T05:23:19.871Z,0
2018-12-18T05:24:19.872Z,0
2018-12-18T05:25:19.850Z,0
2018-12-18T05:26:19.931Z,0
2018-12-18T05:27:19.586Z,0
2018-12-18T05:28:21.125Z,0
2018-12-18T05:29:20.052Z,0
2018-12-18T05:30:19.825Z,0
2018-12-18T05:31:19.812Z,0
2018-12-18T05:32:20.011Z,0
2018-12-18T05:33:20.056Z,0
2018-12-18T05:34:19.519Z,0
2018-12-18T05:35:19.479Z,0
2018-12-18T05:36:19.741Z,0
2018-12-18T05:37:19.215Z,0
2018-12-18T05:38:19.684Z,0
2018-12-18T05:39:19.936Z,0
2018-12-18T05:40:19.926Z,0
2018-12-18T05:41:19.700Z,0
2018-12-18T05:42:19.446Z,0
2018-12-18T05:43:19.898Z,0
2018-12-18T05:44:19.980Z,0
2018-12-18T05:45:19.622Z,0
2018-12-18T05:46:19.926Z,0
2018-12-18T05:47:19.372Z,0
2018-12-18T05:48:19.575Z,0
2018-12-18T05:49:19.553Z,0
2018-12-18T05:50:19.298Z,0
2018-12-18T05:51:19.597Z,0
2018-12-18T05:52:22.794Z,0
2018-12-18T05:53:19.274Z,0
2018-12-18T05:54:19.761Z,0
2018-12-18T05:55:19.514Z,0
2018-12-18T05:56:19.538Z,0
2018-12-18T05:57:19.483Z,0
2018-12-18T05:58:19.735Z,0
2018-12-18T05:59:19.715Z,0
2018-12-18T06:00:19.447Z,0
2018-12-18T06:01:19.381Z,0
2018-12-18T06:02:19.179Z,0
2018-12-18T06:03:19.653Z,0
2018-12-18T06:04:19.150Z,0
2018-12-18T06:05:19.385Z,0
2018-12-18T06:06:19.195Z,0
2018-12-18T06:07:19.602Z,0
2018-12-18T06:08:19.343Z,0
2018-12-18T06:09:19.594Z,0
2018-12-18T06:10:19.338Z,0
2018-12-18T06:11:19.581Z,0
2018-12-18T06:12:19.070Z,0
2018-12-18T06:13:19.548Z,0
2018-12-18T06:14:19.590Z,0
2018-12-18T06:15:19.528Z,0
2018-12-18T06:16:19.649Z,0
2018-12-18T06:17:19.088Z,0
2018-12-18T06:18:19.502Z,0
2018-12-18T06:19:19.262Z,0
2018-12-18T06:20:19.243Z,0
2018-12-18T06:21:19.109Z,0
2018-12-18T06:22:19.203Z,0
2018-12-18T06:23:21.092Z,0
2018-12-18T06:24:19.442Z,0
2018-12-18T06:25:21.429Z,0
2018-12-18T06:26:19.431Z,0
2018-12-18T06:27:18.889Z,0
2018-12-18T06:28:19.369Z,0
2018-12-18T06:29:18.605Z,0
2018-12-18T06:30:19.122Z,0
2018-12-18T06:31:18.947Z,0
2018-12-18T06:32:19.345Z,0
2018-12-18T06:33:19.072Z,0
2018-12-18T06:34:19.320Z,0
2018-12-18T06:35:20.073Z,0
2018-12-18T06:36:19.402Z,0
2018-12-18T06:37:18.838Z,0
2018-12-18T06:38:19.025Z,0
2018-12-18T06:39:19.245Z,0
2018-12-18T06:40:19.247Z,0
2018-12-18T06:41:18.967Z,0
2018-12-18T06:42:18.989Z,0
2018-12-18T06:43:18.729Z,0
2018-12-18T06:44:19.188Z,0
2018-12-18T06:45:18.942Z,0
2018-12-18T06:46:18.938Z,0
2018-12-18T06:47:18.720Z,0
2018-12-18T06:48:19.161Z,0
2018-12-18T06:49:18.646Z,0
2018-12-18T06:50:18.637Z,0
2018-12-18T06:51:19.155Z,0
2018-12-18T06:52:19.110Z,0
2018-12-18T06:53:19.147Z,0
2018-12-18T06:54:19.087Z,0
2018-12-18T06:55:18.316Z,0
2018-12-18T06:56:19.069Z,0
2018-12-18T06:57:18.592Z,0
2018-12-18T06:58:18.550Z,0
2018-12-18T06:59:18.783Z,0
2018-12-18T07:00:18.789Z,0
2018-12-18T07:01:18.593Z,0
2018-12-18T07:02:18.753Z,0
2018-12-18T07:03:18.728Z,0
2018-12-18T07:04:18.478Z,0
2018-12-18T07:05:23.750Z,5
2018-12-18T07:06:18.826Z,5
2018-12-18T07:07:18.696Z,5
2018-12-18T07:08:18.481Z,5
2018-12-18T07:09:18.408Z,5
2018-12-18T07:10:18.155Z,5
2018-12-18T07:11:18.663Z,5
2018-12-18T07:12:18.166Z,5
2018-12-18T07:13:18.363Z,10
2018-12-18T07:14:18.682Z,10
2018-12-18T07:15:18.342Z,10
2018-12-18T07:16:18.451Z,10
2018-12-18T07:17:18.098Z,10
2018-12-18T07:18:19.356Z,10
2018-12-18T07:19:18.287Z,15
2018-12-18T07:20:18.287Z,15
2018-12-18T07:21:18.893Z,15
2018-12-18T07:22:20.127Z,15
2018-12-18T07:23:18.569Z,15
2018-12-18T07:24:22.904Z,20
2018-12-18T07:25:18.228Z,20
2018-12-18T07:26:18.292Z,20
2018-12-18T07:27:18.486Z,20
2018-12-18T07:28:18.208Z,20
2018-12-18T07:29:17.953Z,25
2018-12-18T07:30:18.425Z,30
2018-12-18T07:31:18.486Z,30
2018-12-18T07:32:18.399Z,30
2018-12-18T07:33:17.662Z,35
2018-12-18T07:34:18.403Z,35
2018-12-18T07:35:23.171Z,35
2018-12-18T07:36:18.645Z,35
2018-12-18T07:37:18.586Z,35
2018-12-18T07:38:18.392Z,35
2018-12-18T07:39:18.080Z,40
2018-12-18T07:40:18.325Z,40
2018-12-18T07:41:18.337Z,40
2018-12-18T07:42:18.286Z,40
2018-12-18T07:43:18.271Z,45
2018-12-18T07:44:18.023Z,45
2018-12-18T07:45:18.522Z,45
2018-12-18T07:46:18.587Z,45
2018-12-18T07:47:17.984Z,50
2018-12-18T07:48:18.454Z,50
2018-12-18T07:49:17.972Z,50
2018-12-18T07:50:17.742Z,50
2018-12-18T07:51:17.718Z,55
2018-12-18T07:52:18.185Z,55
2018-12-18T07:53:18.459Z,55
2018-12-18T07:54:17.918Z,55
2018-12-18T07:55:17.657Z,60
2018-12-18T07:56:18.158Z,60
2018-12-18T07:57:18.120Z,60
2018-12-18T07:58:18.119Z,60
2018-12-18T07:59:18.333Z,65
2018-12-18T08:00:17.606Z,65
2018-12-18T08:01:18.365Z,65
2018-12-18T08:02:18.132Z,65
2018-12-18T08:03:18.294Z,65
2018-12-18T08:04:18.078Z,70
2018-12-18T08:05:18.011Z,70
2018-12-18T08:06:17.562Z,70
2018-12-18T08:07:17.993Z,70
2018-12-18T08:08:22.936Z,75
2018-12-18T08:09:18.002Z,75
2018-12-18T08:10:17.954Z,75
2018-12-18T08:11:17.572Z,75
2018-12-18T08:12:17.195Z,75
2018-12-18T08:13:17.690Z,80
2018-12-18T08:14:17.913Z,80
2018-12-18T08:15:17.658Z,80
2018-12-18T08:16:17.981Z,80
2018-12-18T08:17:17.902Z,85
2018-12-18T08:18:17.645Z,85
2018-12-18T08:19:18.109Z,85
2018-12-18T08:20:18.087Z,85
2018-12-18T08:21:17.640Z,85
2018-12-18T08:22:17.826Z,85
2018-12-18T08:23:17.567Z,90
2018-12-18T08:24:19.986Z,90
2018-12-18T08:25:17.812Z,90
2018-12-18T08:26:18.093Z,90
2018-12-18T08:27:17.592Z,90
2018-12-18T08:28:18.093Z,90
2018-12-18T08:29:17.746Z,95
2018-12-18T08:30:17.515Z,95
2018-12-18T08:31:17.972Z,95
2018-12-18T08:32:19.141Z,95
2018-12-18T08:33:18.016Z,95
2018-12-18T08:34:18.031Z,100
2018-12-18T08:35:18.055Z,100
2018-12-18T08:36:17.979Z,100
2018-12-18T08:37:17.665Z,100
2018-12-18T08:38:17.690Z,100
2018-12-18T08:39:18.153Z,105
2018-12-18T08:40:17.353Z,105
2018-12-18T08:41:17.448Z,105
2018-12-18T08:42:17.588Z,105
2018-12-18T08:43:17.360Z,105
2018-12-18T08:44:17.810Z,105
2018-12-18T08:45:17.308Z,110
2018-12-18T08:46:19.402Z,110
2018-12-18T08:47:17.296Z,110
2018-12-18T08:48:17.300Z,110
2018-12-18T08:49:17.530Z,110
2018-12-18T08:50:17.542Z,110
2018-12-18T08:51:17.788Z,110
2018-12-18T08:52:17.791Z,110
2018-12-18T08:53:17.756Z,110
2018-12-18T08:54:18.326Z,110
2018-12-18T08:55:17.737Z,110
2018-12-18T08:56:17.588Z,110
2018-12-18T08:57:17.455Z,115
2018-12-18T08:58:17.438Z,115
2018-12-18T08:59:17.714Z,115
2018-12-18T09:00:17.200Z,115
2018-12-18T09:01:17.485Z,115
2018-12-18T09:02:17.143Z,115
2018-12-18T09:03:17.147Z,120
2018-12-18T09:04:16.905Z,120
2018-12-18T09:05:17.378Z,120
2018-12-18T09:06:17.377Z,120
2018-12-18T09:07:17.134Z,120
2018-12-18T09:08:17.107Z,120
2018-12-18T09:09:17.327Z,120
2018-12-18T09:10:17.346Z,125
2018-12-18T09:11:16.855Z,125
2018-12-18T09:12:17.556Z,125
2018-12-18T09:13:17.528Z,125
2018-12-18T09:14:17.276Z,125
2018-12-18T09:15:17.281Z,125
2018-12-18T09:16:16.776Z,125
2018-12-18T09:17:17.246Z,130
2018-12-18T09:18:16.734Z,130
2018-12-18T09:19:16.973Z,130
2018-12-18T09:20:17.237Z,130
2018-12-18T09:21:17.439Z,130
2018-12-18T09:22:16.958Z,130
2018-12-18T09:23:16.936Z,135
2018-12-18T09:24:18.548Z,135
2018-12-18T09:25:16.946Z,135
2018-12-18T09:26:17.221Z,135
2018-12-18T09:27:17.121Z,135
2018-12-18T09:28:16.894Z,135
2018-12-18T09:29:17.371Z,140
2018-12-18T09:30:17.362Z,140
2018-12-18T09:31:17.098Z,140
2018-12-18T09:32:17.100Z,140
2018-12-18T09:33:17.059Z,140
2018-12-18T09:34:16.801Z,140
2018-12-18T09:35:17.024Z,145
2018-12-18T09:36:17.046Z,145
2018-12-18T09:37:17.020Z,145
2018-12-18T09:38:17.001Z,145
2018-12-18T09:39:16.787Z,145
2018-12-18T09:40:17.001Z,150
2018-12-18T09:41:16.671Z,155
2018-12-18T09:42:17.274Z,150
2018-12-18T09:43:16.708Z,150
2018-12-18T09:44:16.715Z,150
2018-12-18T09:45:16.953Z,150
2018-12-18T09:46:17.204Z,150
2018-12-18T09:47:17.189Z,150
2018-12-18T09:48:16.680Z,155
2018-12-18T09:49:16.436Z,155
2018-12-18T09:50:17.171Z,155
2018-12-18T09:51:16.953Z,155
2018-12-18T09:52:16.893Z,155
2018-12-18T09:53:16.157Z,155
2018-12-18T09:54:17.129Z,155
2018-12-18T09:55:17.928Z,150
2018-12-18T09:56:16.968Z,155
2018-12-18T09:57:16.385Z,150
2018-12-18T09:58:16.835Z,150
2018-12-18T09:59:17.083Z,155
2018-12-18T10:00:16.570Z,160
2018-12-18T10:01:16.878Z,155
2018-12-18T10:02:16.542Z,155
2018-12-18T10:03:16.817Z,155
2018-12-18T10:04:16.307Z,155
2018-12-18T10:05:16.572Z,155
2018-12-18T10:06:16.638Z,155
2018-12-18T10:07:16.762Z,155
2018-12-18T10:08:16.509Z,155
2018-12-18T10:09:19.163Z,155
2018-12-18T10:10:20.454Z,155
2018-12-18T10:11:16.538Z,155
2018-12-18T10:12:16.739Z,160
2018-12-18T10:13:16.242Z,160
2018-12-18T10:14:16.187Z,160
2018-12-18T10:15:16.927Z,160
2018-12-18T10:16:16.690Z,160
2018-12-18T10:17:16.439Z,160
2018-12-18T10:18:16.409Z,160
2018-12-18T10:19:15.983Z,160
2018-12-18T10:20:16.915Z,160
2018-12-18T10:21:16.470Z,160
2018-12-18T10:22:16.623Z,160
2018-12-18T10:23:16.721Z,160
2018-12-18T10:24:16.757Z,160
2018-12-18T10:25:16.622Z,160
2018-12-18T10:26:19.374Z,160
2018-12-18T10:27:16.837Z,160
2018-12-18T10:28:16.584Z,160
2018-12-18T10:29:16.076Z,160
2018-12-18T10:30:17.544Z,160
2018-12-18T10:31:16.613Z,160
2018-12-18T10:32:16.313Z,160
2018-12-18T10:33:16.778Z,160
2018-12-18T10:34:16.757Z,160
2018-12-18T10:35:16.009Z,160
2018-12-18T10:36:16.498Z,160
2018-12-18T10:37:16.445Z,160
2018-12-18T10:38:16.449Z,160
2018-12-18T10:39:16.737Z,160
2018-12-18T10:40:16.715Z,160
2018-12-18T10:41:16.526Z,160
2018-12-18T10:42:16.468Z,160
2018-12-18T10:43:16.202Z,155
2018-12-18T10:44:16.685Z,155
2018-12-18T10:45:22.650Z,155
2018-12-18T10:46:16.449Z,155
2018-12-18T10:47:16.168Z,155
2018-12-18T10:48:15.632Z,155
2018-12-18T10:49:16.118Z,155
2018-12-18T10:50:16.373Z,155
2018-12-18T10:51:16.433Z,155
2018-12-18T10:52:16.361Z,155
2018-12-18T10:53:16.410Z,155
2018-12-18T10:54:16.576Z,155
2018-12-18T10:55:16.644Z,155
2018-12-18T10:56:18.000Z,155
2018-12-18T10:57:16.355Z,155
2018-12-18T10:58:16.321Z,160
2018-12-18T10:59:16.561Z,155
2018-12-18T11:00:16.533Z,160
2018-12-18T11:01:16.509Z,160
2018-12-18T11:02:16.019Z,160
2018-12-18T11:03:16.514Z,160
2018-12-18T11:04:16.514Z,160
2018-12-18T11:05:16.243Z,160
2018-12-18T11:06:19.224Z,160
2018-12-18T11:07:16.493Z,160
2018-12-18T11:08:16.242Z,160
2018-12-18T11:09:16.197Z,160
2018-12-18T11:10:15.934Z,160
2018-12-18T11:11:16.193Z,160
2018-12-18T11:12:16.418Z,160
2018-12-18T11:13:15.695Z,160
2018-12-18T11:14:16.435Z,160
2018-12-18T11:15:15.915Z,165
2018-12-18T11:16:15.743Z,160
2018-12-18T11:17:16.118Z,160
2018-12-18T11:18:16.127Z,160
2018-12-18T11:19:16.134Z,160
2018-12-18T11:20:15.900Z,160
2018-12-18T11:21:15.865Z,160
2018-12-18T11:22:15.864Z,155
2018-12-18T11:23:16.336Z,155
2018-12-18T11:24:15.819Z,155
2018-12-18T11:25:16.053Z,155
2018-12-18T11:26:16.212Z,155
2018-12-18T11:27:16.609Z,155
2018-12-18T11:28:16.053Z,155
2018-12-18T11:29:16.061Z,155
2018-12-18T11:30:16.039Z,155
2018-12-18T11:31:16.319Z,155
2018-12-18T11:32:16.737Z,155
2018-12-18T11:33:16.260Z,155
2018-12-18T11:34:15.992Z,155
2018-12-18T11:35:15.998Z,155
2018-12-18T11:36:21.354Z,155
2018-12-18T11:37:16.024Z,155
2018-12-18T11:38:15.750Z,155
2018-12-18T11:39:15.721Z,155
2018-12-18T11:40:16.224Z,155
2018-12-18T11:41:16.267Z,155
2018-12-18T11:42:16.533Z,155
2018-12-18T11:43:15.934Z,155
2018-12-18T11:44:15.916Z,155
2018-12-18T11:45:15.432Z,155
2018-12-18T11:46:16.227Z,155
2018-12-18T11:47:15.909Z,155
2018-12-18T11:48:16.148Z,155
2018-12-18T11:49:16.130Z,155
2018-12-18T11:50:15.392Z,155
2018-12-18T11:51:16.156Z,155
2018-12-18T11:52:15.873Z,155
2018-12-18T11:53:15.862Z,150
2018-12-18T11:54:15.597Z,150
2018-12-18T11:55:16.078Z,150
2018-12-18T11:56:15.872Z,150
2018-12-18T11:57:21.858Z,150
2018-12-18T11:58:16.091Z,155
2018-12-18T11:59:17.708Z,150
2018-12-18T12:00:15.303Z,150
2018-12-18T12:01:15.865Z,150
2018-12-18T12:02:16.042Z,150
2018-12-18T12:03:15.782Z,150
2018-12-18T12:04:15.543Z,150
2018-12-18T12:05:15.777Z,150
2018-12-18T12:06:15.822Z,150
2018-12-18T12:07:16.042Z,145
2018-12-18T12:08:15.234Z,150
2018-12-18T12:09:15.798Z,145
2018-12-18T12:10:15.724Z,145
2018-12-18T12:11:15.534Z,145
2018-12-18T12:12:15.702Z,145
2018-12-18T12:13:15.733Z,145
2018-12-18T12:14:15.697Z,145
2018-12-18T12:15:15.474Z,145
2018-12-18T12:16:15.285Z,145
2018-12-18T12:17:15.669Z,145
2018-12-18T12:18:15.674Z,145
2018-12-18T12:19:15.655Z,145
2018-12-18T12:20:15.386Z,145
2018-12-18T12:21:15.910Z,145
2018-12-18T12:22:15.911Z,140
2018-12-18T12:23:15.859Z,140
2018-12-18T12:24:15.895Z,140
2018-12-18T12:25:15.356Z,140
2018-12-18T12:26:15.677Z,140
2018-12-18T12:27:15.591Z,140
2018-12-18T12:28:18.833Z,140
2018-12-18T12:29:15.603Z,140
2018-12-18T12:30:15.801Z,140
2018-12-18T12:31:17.372Z,140
2018-12-18T12:32:15.552Z,140
2018-12-18T12:33:15.540Z,140
2018-12-18T12:34:15.796Z,140
2018-12-18T12:35:15.299Z,140
2018-12-18T12:36:15.648Z,140
2018-12-18T12:37:15.764Z,135
2018-12-18T12:38:15.773Z,135
2018-12-18T12:39:15.246Z,135
2018-12-18T12:40:15.523Z,135
2018-12-18T12:41:15.582Z,135
2018-12-18T12:42:15.478Z,130
2018-12-18T12:43:16.946Z,130
2018-12-18T12:44:15.220Z,130
2018-12-18T12:45:15.221Z,130
2018-12-18T12:46:15.470Z,125
2018-12-18T12:47:15.682Z,125
2018-12-18T12:48:15.671Z,125
2018-12-18T12:49:15.666Z,125
2018-12-18T12:50:15.416Z,120
2018-12-18T12:51:15.463Z,120
2018-12-18T12:52:15.426Z,115
2018-12-18T12:53:15.178Z,115
2018-12-18T12:54:15.653Z,115
2018-12-18T12:55:15.149Z,115
2018-12-18T12:56:15.446Z,115
2018-12-18T12:57:15.401Z,115
2018-12-18T12:58:15.601Z,115
2018-12-18T12:59:15.637Z,115
2018-12-18T13:00:15.361Z,115
2018-12-18T13:01:15.444Z,115
2018-12-18T13:02:15.626Z,115
2018-12-18T13:03:15.339Z,115
2018-12-18T13:04:15.100Z,120
2018-12-18T13:05:15.329Z,120
2018-12-18T13:06:15.408Z,120
2018-12-18T13:07:15.055Z,120
2018-12-18T13:08:15.065Z,120
2018-12-18T13:09:15.285Z,115
2018-12-18T13:10:15.292Z,115
2018-12-18T13:11:15.357Z,115
2018-12-18T13:12:15.281Z,115
2018-12-18T13:13:15.774Z,115
2018-12-18T13:14:15.284Z,115
2018-12-18T13:15:15.503Z,120
2018-12-18T13:16:15.310Z,115
2018-12-18T13:17:15.476Z,115
2018-12-18T13:18:14.984Z,115
2018-12-18T13:19:14.741Z,115
2018-12-18T13:20:15.240Z,115
2018-12-18T13:21:15.321Z,115
2018-12-18T13:22:15.225Z,115
2018-12-18T13:23:15.207Z,115
2018-12-18T13:24:15.445Z,115
2018-12-18T13:25:15.178Z,115
2018-12-18T13:26:15.528Z,115
2018-12-18T13:27:15.186Z,115
2018-12-18T13:28:15.155Z,120
2018-12-18T13:29:17.865Z,115
2018-12-18T13:30:15.218Z,115
2018-12-18T13:31:14.709Z,115
2018-12-18T13:32:14.891Z,115
2018-12-18T13:33:14.926Z,115
2018-12-18T13:34:15.125Z,115
2018-12-18T13:35:14.864Z,115
2018-12-18T13:36:14.677Z,110
2018-12-18T13:37:15.123Z,110
2018-12-18T13:38:15.125Z,110
2018-12-18T13:39:15.107Z,110
2018-12-18T13:40:15.085Z,110
2018-12-18T13:41:14.815Z,110
2018-12-18T13:42:15.060Z,110
2018-12-18T13:43:15.057Z,105
2018-12-18T13:44:15.127Z,105
2018-12-18T13:45:15.301Z,105
2018-12-18T13:46:21.903Z,105
2018-12-18T13:47:14.810Z,105
2018-12-18T13:48:15.312Z,105
2018-12-18T13:49:14.789Z,105
2018-12-18T13:50:14.757Z,105
2018-12-18T13:51:14.820Z,105
2018-12-18T13:52:15.079Z,100
2018-12-18T13:53:15.006Z,100
2018-12-18T13:54:14.996Z,100
2018-12-18T13:55:15.066Z,100
2018-12-18T13:56:15.088Z,100
2018-12-18T13:57:14.735Z,100
2018-12-18T13:58:14.703Z,95
2018-12-18T13:59:17.880Z,95
2018-12-18T14:00:15.001Z,95
2018-12-18T14:01:14.969Z,95
2018-12-18T14:02:14.691Z,90
2018-12-18T14:03:15.178Z,90
2018-12-18T14:04:15.156Z,90
2018-12-18T14:05:14.942Z,90
2018-12-18T14:06:15.222Z,85
2018-12-18T14:07:15.174Z,85
2018-12-18T14:08:14.662Z,85
2018-12-18T14:09:15.143Z,85
2018-12-18T14:10:14.878Z,85
2018-12-18T14:11:15.228Z,80
2018-12-18T14:12:14.861Z,80
2018-12-18T14:13:14.372Z,80
2018-12-18T14:14:14.839Z,75
2018-12-18T14:15:14.673Z,75
2018-12-18T14:16:15.079Z,75
2018-12-18T14:17:14.836Z,75
2018-12-18T14:18:14.589Z,70
2018-12-18T14:19:14.808Z,70